Check out our new BloomSky Weather System.

Active alerts


No alerts


Thunder radar  blitzortung!


Rain radar more information rain snow radar


Visit our other weather sites:

Template documentation
and downloads

And another site



Weather Underground History page Text

Daily Summary for March 23, 2017 Units:  English    Metric   Both
« Previous Day
Next Day »
Daily Weekly Monthly Yearly Custom
  High: Low: Average:
Temperature: 86.2 °F 65.3 °F 72.3 °F
Dew Point: 68.5 °F 46.6 °F 62.8 °F
Humidity: 98 % 26 % 77 %
Wind Speed: 20.0 mph 0.0 mph 5.1 mph
Wind Gust: 21.0 mph - -
Wind:- - SE
Pressure: 30.14 in 30.01 in -
Precipitation: 0.00 in    
Historical Graphs
 
 
Tabular Data for March 23, 2017
Time Temperature Dew Point Pressure Wind Wind Speed Wind Gust Humidity Rainfall Rate (Hourly)
00:00 69.4 °F 66.4 °F 30.13 in SE 2.0 mph 5.0 mph 90 % 0.00 in
00:05 69.4 °F 66.4 °F 30.13 in SSE 1.0 mph 4.0 mph 90 % 0.00 in
00:10 69.3 °F 66.6 °F 30.13 in SSE 2.0 mph 4.0 mph 91 % 0.00 in
00:16 69.3 °F 66.6 °F 30.13 in SE 1.0 mph 3.0 mph 91 % 0.00 in
00:21 69.1 °F 66.4 °F 30.13 in SSE 2.0 mph 3.0 mph 91 % 0.00 in
00:26 69.1 °F 66.4 °F 30.12 in ESE 1.0 mph 4.0 mph 91 % 0.00 in
00:31 68.7 °F 66.0 °F 30.12 in Calm   4.0 mph 91 % 0.00 in
00:36 68.5 °F 65.8 °F 30.12 in ESE 1.0 mph 4.0 mph 91 % 0.00 in
00:41 68.5 °F 66.2 °F 30.12 in ESE 2.0 mph 3.0 mph 92 % 0.00 in
00:46 68.5 °F 66.2 °F 30.12 in ESE 1.0 mph 4.0 mph 92 % 0.00 in
00:51 68.4 °F 66.0 °F 30.12 in SSE 2.0 mph 4.0 mph 92 % 0.00 in
00:56 68.4 °F 66.0 °F 30.12 in ESE 2.0 mph 4.0 mph 92 % 0.00 in
01:01 68.4 °F 66.2 °F 30.12 in SE 2.0 mph 3.0 mph 93 % 0.00 in
01:06 68.4 °F 66.2 °F 30.12 in ESE 2.0 mph 5.0 mph 93 % 0.00 in
01:11 68.4 °F 66.2 °F 30.12 in Calm   5.0 mph 93 % 0.00 in
01:16 68.2 °F 66.0 °F 30.12 in South 2.0 mph 5.0 mph 93 % 0.00 in
01:21 68.2 °F 66.0 °F 30.12 in SE 1.0 mph 5.0 mph 93 % 0.00 in
01:26 68.2 °F 66.4 °F 30.12 in ESE 1.0 mph 4.0 mph 94 % 0.00 in
01:31 67.8 °F 66.0 °F 30.12 in ESE 2.0 mph 4.0 mph 94 % 0.00 in
01:36 67.8 °F 66.0 °F 30.12 in East 2.0 mph 4.0 mph 94 % 0.00 in
01:41 67.8 °F 66.0 °F 30.12 in ESE 1.0 mph 4.0 mph 94 % 0.00 in
01:46 67.8 °F 66.0 °F 30.12 in Calm   4.0 mph 94 % 0.00 in
01:51 67.6 °F 65.8 °F 30.12 in SSE 1.0 mph 4.0 mph 94 % 0.00 in
01:56 67.5 °F 65.7 °F 30.11 in SE 3.0 mph 4.0 mph 94 % 0.00 in
02:01 67.5 °F 66.0 °F 30.11 in SE 1.0 mph 4.0 mph 95 % 0.00 in
02:06 67.5 °F 66.0 °F 30.11 in Calm   3.0 mph 95 % 0.00 in
02:11 67.5 °F 66.0 °F 30.11 in Calm   3.0 mph 95 % 0.00 in
02:16 67.3 °F 65.8 °F 30.11 in SSW 2.0 mph 3.0 mph 95 % 0.00 in
02:21 67.1 °F 65.7 °F 30.11 in Calm   2.0 mph 95 % 0.00 in
02:26 66.9 °F 65.5 °F 30.11 in Calm   2.0 mph 95 % 0.00 in
02:31 66.7 °F 65.3 °F 30.11 in Calm   2.0 mph 95 % 0.00 in
02:36 66.6 °F 65.1 °F 30.11 in Calm   1.0 mph 95 % 0.00 in
02:41 66.6 °F 65.1 °F 30.11 in Calm   1.0 mph 95 % 0.00 in
02:46 66.6 °F 65.1 °F 30.11 in Calm   1.0 mph 95 % 0.00 in
02:51 66.6 °F 65.3 °F 30.10 in ESE 1.0 mph 1.0 mph 96 % 0.00 in
02:57 66.4 °F 65.1 °F 30.10 in Calm   1.0 mph 96 % 0.00 in
03:02 66.4 °F 65.1 °F 30.10 in Calm   2.0 mph 96 % 0.00 in
03:07 66.4 °F 65.1 °F 30.10 in Calm   2.0 mph 96 % 0.00 in
03:12 66.2 °F 64.9 °F 30.10 in ESE 1.0 mph 2.0 mph 96 % 0.00 in
03:17 66.2 °F 64.9 °F 30.10 in SE 1.0 mph 2.0 mph 96 % 0.00 in
03:22 66.2 °F 64.9 °F 30.10 in Calm   3.0 mph 96 % 0.00 in
03:28 66.0 °F 64.8 °F 30.10 in ESE 1.0 mph 3.0 mph 96 % 0.00 in
03:33 66.0 °F 64.8 °F 30.09 in Calm   3.0 mph 96 % 0.00 in
03:38 65.8 °F 64.6 °F 30.09 in Calm   1.0 mph 96 % 0.00 in
03:43 65.8 °F 64.6 °F 30.09 in SE 1.0 mph 2.0 mph 96 % 0.00 in
03:48 65.8 °F 64.9 °F 30.09 in SE 1.0 mph 3.0 mph 97 % 0.00 in
03:53 65.8 °F 64.9 °F 30.09 in SE 1.0 mph 3.0 mph 97 % 0.00 in
03:58 65.8 °F 64.9 °F 30.09 in East 1.0 mph 3.0 mph 97 % 0.00 in
04:03 66.0 °F 65.1 °F 30.09 in SSE 1.0 mph 3.0 mph 97 % 0.00 in
04:08 66.0 °F 65.1 °F 30.09 in ESE 1.0 mph 3.0 mph 97 % 0.00 in
04:13 66.2 °F 65.3 °F 30.09 in ESE 1.0 mph 3.0 mph 97 % 0.00 in
04:18 66.2 °F 65.3 °F 30.09 in Calm   3.0 mph 97 % 0.00 in
04:23 66.2 °F 65.3 °F 30.09 in ESE 2.0 mph 3.0 mph 97 % 0.00 in
04:28 66.0 °F 65.1 °F 30.09 in ESE 1.0 mph 3.0 mph 97 % 0.00 in
04:33 66.0 °F 65.1 °F 30.09 in SSE 1.0 mph 3.0 mph 97 % 0.00 in
04:38 66.0 °F 65.1 °F 30.09 in ESE 1.0 mph 3.0 mph 97 % 0.00 in
04:43 65.8 °F 64.9 °F 30.09 in ESE 1.0 mph 2.0 mph 97 % 0.00 in
04:45 65.8 °F 64.9 °F 30.09 in Calm   2.0 mph 97 % 0.00 in
04:50 65.8 °F 64.9 °F 30.09 in ESE 1.0 mph 2.0 mph 97 % 0.00 in
04:55 65.7 °F 64.8 °F 30.09 in SE 1.0 mph 2.0 mph 97 % 0.00 in
05:00 65.8 °F 64.9 °F 30.09 in SE 3.0 mph 3.0 mph 97 % 0.00 in
05:05 65.8 °F 64.9 °F 30.09 in SE 1.0 mph 3.0 mph 97 % 0.00 in
05:10 65.8 °F 64.9 °F 30.09 in SE 2.0 mph 3.0 mph 97 % 0.00 in
05:15 65.8 °F 64.9 °F 30.09 in SE 2.0 mph 3.0 mph 97 % 0.00 in
05:20 65.8 °F 64.9 °F 30.09 in Calm   3.0 mph 97 % 0.00 in
05:25 65.7 °F 64.8 °F 30.09 in Calm   3.0 mph 97 % 0.00 in
05:30 65.7 °F 64.8 °F 30.09 in SE 1.0 mph 3.0 mph 97 % 0.00 in
05:35 65.8 °F 64.9 °F 30.09 in SE 1.0 mph 4.0 mph 97 % 0.00 in
05:40 66.0 °F 65.1 °F 30.09 in ESE 1.0 mph 4.0 mph 97 % 0.00 in
05:45 66.0 °F 65.1 °F 30.09 in SSE 1.0 mph 4.0 mph 97 % 0.00 in
05:50 66.0 °F 65.1 °F 30.09 in SSE 1.0 mph 3.0 mph 97 % 0.00 in
05:55 66.0 °F 65.1 °F 30.09 in Calm   3.0 mph 97 % 0.00 in
06:00 65.8 °F 64.9 °F 30.09 in Calm   3.0 mph 97 % 0.00 in
06:05 65.8 °F 64.9 °F 30.10 in SSE 2.0 mph 3.0 mph 97 % 0.00 in
06:10 65.7 °F 64.8 °F 30.10 in Calm   2.0 mph 97 % 0.00 in
06:15 65.7 °F 64.8 °F 30.10 in Calm   2.0 mph 97 % 0.00 in
06:20 65.7 °F 64.8 °F 30.10 in Calm   2.0 mph 97 % 0.00 in
06:26 65.7 °F 64.8 °F 30.10 in Calm   2.0 mph 97 % 0.00 in
06:31 65.5 °F 64.6 °F 30.10 in SE 1.0 mph 2.0 mph 97 % 0.00 in
06:36 65.7 °F 65.1 °F 30.10 in East 1.0 mph 2.0 mph 98 % 0.00 in
06:41 65.7 °F 64.8 °F 30.10 in ESE 1.0 mph 2.0 mph 97 % 0.00 in
06:46 65.7 °F 64.8 °F 30.10 in Calm   2.0 mph 97 % 0.00 in
06:51 65.7 °F 64.8 °F 30.10 in East 1.0 mph 2.0 mph 97 % 0.00 in
06:56 65.7 °F 64.8 °F 30.10 in Calm   2.0 mph 97 % 0.00 in
07:01 65.5 °F 64.6 °F 30.11 in SE 1.0 mph 2.0 mph 97 % 0.00 in
07:06 65.5 °F 64.6 °F 30.11 in Calm   2.0 mph 97 % 0.00 in
07:11 65.5 °F 64.6 °F 30.11 in Calm   2.0 mph 97 % 0.00 in
07:16 65.3 °F 64.4 °F 30.11 in Calm   2.0 mph 97 % 0.00 in
07:21 65.3 °F 64.8 °F 30.11 in ESE 1.0 mph 2.0 mph 98 % 0.00 in
07:26 65.3 °F 64.4 °F 30.11 in Calm   2.0 mph 97 % 0.00 in
07:31 65.5 °F 64.9 °F 30.12 in East 1.0 mph 2.0 mph 98 % 0.00 in
07:36 65.5 °F 64.9 °F 30.12 in Calm   2.0 mph 98 % 0.00 in
07:41 65.5 °F 64.9 °F 30.12 in SE 1.0 mph 2.0 mph 98 % 0.00 in
07:46 65.5 °F 64.9 °F 30.12 in Calm   2.0 mph 98 % 0.00 in
07:51 65.7 °F 65.1 °F 30.12 in SE 1.0 mph 2.0 mph 98 % 0.00 in
07:56 65.7 °F 65.1 °F 30.12 in Calm   2.0 mph 98 % 0.00 in
08:01 65.8 °F 65.3 °F 30.12 in East 2.0 mph 2.0 mph 98 % 0.00 in
08:06 66.0 °F 65.5 °F 30.12 in SSE 1.0 mph 2.0 mph 98 % 0.00 in
08:11 66.2 °F 65.7 °F 30.12 in SE 1.0 mph 2.0 mph 98 % 0.00 in
08:16 66.4 °F 65.8 °F 30.12 in Calm   4.0 mph 98 % 0.00 in
08:21 66.7 °F 66.2 °F 30.12 in SE 1.0 mph 4.0 mph 98 % 0.00 in
08:26 67.3 °F 66.7 °F 30.12 in South 3.0 mph 4.0 mph 98 % 0.00 in
08:31 67.6 °F 67.1 °F 30.12 in ESE 2.0 mph 4.0 mph 98 % 0.00 in
08:36 67.8 °F 66.9 °F 30.13 in SE 2.0 mph 6.0 mph 97 % 0.00 in
08:41 68.2 °F 67.3 °F 30.13 in SSE 3.0 mph 7.0 mph 97 % 0.00 in
08:46 68.5 °F 67.3 °F 30.13 in SE 3.0 mph 7.0 mph 96 % 0.00 in
08:56 69.6 °F 68.2 °F 30.13 in SSE 5.0 mph 9.0 mph 95 % 0.00 in
09:01 70.2 °F 68.0 °F 30.13 in SE 5.0 mph 9.0 mph 93 % 0.00 in
09:06 70.3 °F 67.8 °F 30.13 in SSE 6.0 mph 7.0 mph 92 % 0.00 in
09:11 70.9 °F 68.2 °F 30.13 in SSE 3.0 mph 8.0 mph 91 % 0.00 in
09:16 71.4 °F 68.4 °F 30.14 in SSE 5.0 mph 9.0 mph 90 % 0.00 in
09:21 71.6 °F 67.8 °F 30.14 in SSE 5.0 mph 9.0 mph 88 % 0.00 in
09:26 72.0 °F 68.2 °F 30.14 in SSW 4.0 mph 11.0 mph 88 % 0.00 in
09:31 72.1 °F 67.6 °F 30.14 in South 8.0 mph 11.0 mph 86 % 0.00 in
09:36 72.1 °F 67.5 °F 30.14 in South 7.0 mph 11.0 mph 85 % 0.00 in
09:41 72.5 °F 67.8 °F 30.14 in SSW 8.0 mph 11.0 mph 85 % 0.00 in
09:46 72.7 °F 67.8 °F 30.14 in ESE 3.0 mph 11.0 mph 85 % 0.00 in
09:51 73.2 °F 68.2 °F 30.14 in SSW 5.0 mph 13.0 mph 84 % 0.00 in
09:56 73.8 °F 68.5 °F 30.14 in SE 7.0 mph 13.0 mph 84 % 0.00 in
10:01 73.8 °F 66.9 °F 30.14 in SSW 6.0 mph 13.0 mph 79 % 0.00 in
10:06 73.8 °F 66.9 °F 30.14 in SSW 7.0 mph 11.0 mph 79 % 0.00 in
10:11 73.9 °F 67.1 °F 30.14 in South 7.0 mph 11.0 mph 79 % 0.00 in
10:17 74.7 °F 67.3 °F 30.14 in South 7.0 mph 11.0 mph 78 % 0.00 in
10:22 74.8 °F 67.1 °F 30.14 in SSE 3.0 mph 13.0 mph 77 % 0.00 in
10:27 74.7 °F 66.2 °F 30.14 in SE 7.0 mph 13.0 mph 75 % 0.00 in
10:32 74.7 °F 66.6 °F 30.14 in SSW 8.0 mph 13.0 mph 76 % 0.00 in
10:34 86.2 °F 50.2 °F 30.04 in ESE 19.0 mph 19.0 mph 29 % 0.00 in
10:35 86.2 °F 49.3 °F 30.04 in SSE 20.0 mph 20.0 mph 28 % 0.00 in
10:36 86.0 °F 49.1 °F 30.04 in SE 17.0 mph 17.0 mph 28 % 0.00 in
10:37 74.8 °F 66.4 °F 30.14 in South 3.0 mph 11.0 mph 75 % 0.00 in
10:42 75.4 °F 67.3 °F 30.14 in South 8.0 mph 16.0 mph 76 % 0.00 in
10:47 75.7 °F 66.9 °F 30.14 in SSE 10.0 mph 16.0 mph 74 % 0.00 in
10:52 76.1 °F 67.6 °F 30.14 in SSE 2.0 mph 16.0 mph 75 % 0.00 in
10:57 76.6 °F 66.9 °F 30.14 in ESE 9.0 mph 15.0 mph 72 % 0.00 in
11:02 76.8 °F 66.7 °F 30.14 in SSE 7.0 mph 12.0 mph 71 % 0.00 in
11:07 77.0 °F 66.9 °F 30.14 in SSE 5.0 mph 13.0 mph 71 % 0.00 in
11:12 77.2 °F 66.2 °F 30.14 in SSE 5.0 mph 17.0 mph 69 % 0.00 in
11:17 77.4 °F 66.7 °F 30.14 in South 7.0 mph 17.0 mph 70 % 0.00 in
11:22 77.7 °F 65.8 °F 30.14 in South 10.0 mph 17.0 mph 67 % 0.00 in
11:27 77.7 °F 65.8 °F 30.14 in East 7.0 mph 15.0 mph 67 % 0.00 in
11:32 78.1 °F 64.9 °F 30.14 in SSW 6.0 mph 15.0 mph 64 % 0.00 in
11:37 78.4 °F 66.2 °F 30.14 in SE 11.0 mph 15.0 mph 66 % 0.00 in
11:42 78.4 °F 65.7 °F 30.13 in SSE 8.0 mph 13.0 mph 65 % 0.00 in
11:47 78.6 °F 65.5 °F 30.13 in ESE 10.0 mph 13.0 mph 64 % 0.00 in
11:52 78.8 °F 65.7 °F 30.13 in SSE 4.0 mph 13.0 mph 64 % 0.00 in
11:57 79.2 °F 65.5 °F 30.13 in SSE 9.0 mph 13.0 mph 63 % 0.00 in
12:02 79.3 °F 64.8 °F 30.13 in ESE 12.0 mph 16.0 mph 61 % 0.00 in
12:07 79.3 °F 64.2 °F 30.13 in South 8.0 mph 16.0 mph 60 % 0.00 in
12:12 79.9 °F 63.9 °F 30.12 in SE 8.0 mph 16.0 mph 58 % 0.00 in
12:17 80.1 °F 63.5 °F 30.12 in South 12.0 mph 17.0 mph 57 % 0.00 in
12:22 80.2 °F 63.1 °F 30.12 in SE 7.0 mph 17.0 mph 56 % 0.00 in
15:36 85.8 °F 48.9 °F 30.04 in South 13.0 mph 13.0 mph 28 % 0.00 in
15:41 85.6 °F 48.7 °F 30.04 in SE 11.0 mph 18.0 mph 28 % 0.00 in
15:47 85.5 °F 46.6 °F 30.04 in SE 12.0 mph 19.0 mph 26 % 0.00 in
15:52 85.3 °F 50.4 °F 30.04 in SSE 9.0 mph 20.0 mph 30 % 0.00 in
15:57 85.5 °F 49.6 °F 30.03 in SE 7.0 mph 20.0 mph 29 % 0.00 in
16:02 85.6 °F 48.7 °F 30.03 in SSE 10.0 mph 20.0 mph 28 % 0.00 in
16:07 85.6 °F 48.7 °F 30.03 in South 14.0 mph 19.0 mph 28 % 0.00 in
16:12 85.3 °F 51.3 °F 30.03 in SSW 10.0 mph 19.0 mph 31 % 0.00 in
16:17 85.3 °F 48.6 °F 30.03 in SE 7.0 mph 19.0 mph 28 % 0.00 in
16:22 85.6 °F 48.7 °F 30.03 in South 10.0 mph 19.0 mph 28 % 0.00 in
16:27 85.3 °F 51.3 °F 30.03 in SSE 10.0 mph 20.0 mph 31 % 0.00 in
16:32 85.3 °F 52.9 °F 30.02 in SSE 9.0 mph 20.0 mph 33 % 0.00 in
16:37 85.1 °F 52.7 °F 30.02 in SSE 8.0 mph 20.0 mph 33 % 0.00 in
16:42 85.3 °F 54.5 °F 30.02 in South 6.0 mph 17.0 mph 35 % 0.00 in
16:47 85.1 °F 54.3 °F 30.02 in SE 10.0 mph 17.0 mph 35 % 0.00 in
16:52 84.6 °F 54.0 °F 30.02 in SE 11.0 mph 19.0 mph 35 % 0.00 in
16:53 84.6 °F 54.7 °F 30.01 in SW 8.0 mph 19.0 mph 36 % 0.00 in
16:58 84.4 °F 55.2 °F 30.01 in SSE 6.0 mph 19.0 mph 37 % 0.00 in
17:03 84.0 °F 54.1 °F 30.02 in South 8.0 mph 19.0 mph 36 % 0.00 in
17:08 83.7 °F 54.7 °F 30.01 in South 14.0 mph 18.0 mph 37 % 0.00 in
17:13 83.5 °F 55.9 °F 30.01 in ESE 8.0 mph 18.0 mph 39 % 0.00 in
17:18 83.3 °F 56.5 °F 30.01 in SE 12.0 mph 18.0 mph 40 % 0.00 in
17:23 83.3 °F 56.5 °F 30.01 in SSE 9.0 mph 18.0 mph 40 % 0.00 in
17:28 82.8 °F 55.9 °F 30.02 in SE 14.0 mph 18.0 mph 40 % 0.00 in
17:33 82.4 °F 55.6 °F 30.02 in SSE 13.0 mph 18.0 mph 40 % 0.00 in
17:38 82.4 °F 56.3 °F 30.02 in SE 5.0 mph 18.0 mph 41 % 0.00 in
17:43 82.0 °F 55.9 °F 30.02 in SE 10.0 mph 18.0 mph 41 % 0.00 in
17:48 81.9 °F 55.2 °F 30.02 in SE 15.0 mph 17.0 mph 40 % 0.00 in
17:53 81.3 °F 54.7 °F 30.01 in SE 12.0 mph 21.0 mph 40 % 0.00 in
17:58 81.1 °F 55.9 °F 30.01 in ESE 9.0 mph 21.0 mph 42 % 0.00 in
18:03 80.8 °F 54.9 °F 30.01 in South 11.0 mph 21.0 mph 41 % 0.00 in
18:08 80.4 °F 54.5 °F 30.01 in SSE 8.0 mph 21.0 mph 41 % 0.00 in
18:13 80.2 °F 54.3 °F 30.01 in South 12.0 mph 20.0 mph 41 % 0.00 in
18:18 80.1 °F 52.9 °F 30.01 in SSE 8.0 mph 20.0 mph 39 % 0.00 in
18:23 79.9 °F 52.7 °F 30.01 in ESE 8.0 mph 21.0 mph 39 % 0.00 in
18:28 79.9 °F 55.4 °F 30.02 in SE 6.0 mph 21.0 mph 43 % 0.00 in
18:33 79.5 °F 55.8 °F 30.02 in SSE 12.0 mph 21.0 mph 44 % 0.00 in
18:38 79.2 °F 55.9 °F 30.02 in SE 8.0 mph 20.0 mph 45 % 0.00 in
18:40 79.2 °F 55.9 °F 30.02 in SW 6.0 mph 15.0 mph 45 % 0.00 in
18:45 79.0 °F 56.5 °F 30.02 in SSE 13.0 mph 14.0 mph 46 % 0.00 in
18:50 78.6 °F 57.2 °F 30.02 in ESE 8.0 mph 15.0 mph 48 % 0.00 in
18:55 78.3 °F 58.1 °F 30.02 in South 6.0 mph 18.0 mph 50 % 0.00 in
19:05 77.4 °F 57.7 °F 30.02 in ESE 10.0 mph 19.0 mph 51 % 0.00 in
19:11 76.6 °F 57.7 °F 30.02 in SSE 12.0 mph 19.0 mph 52 % 0.00 in
19:16 76.3 °F 57.9 °F 30.02 in SE 11.0 mph 19.0 mph 53 % 0.00 in
19:21 75.7 °F 57.9 °F 30.02 in ESE 4.0 mph 18.0 mph 54 % 0.00 in
19:26 75.4 °F 57.6 °F 30.02 in SE 9.0 mph 20.0 mph 54 % 0.00 in
19:31 75.0 °F 58.3 °F 30.02 in ESE 3.0 mph 20.0 mph 56 % 0.00 in
19:36 74.7 °F 58.5 °F 30.02 in SE 12.0 mph 20.0 mph 57 % 0.00 in
19:41 74.1 °F 58.8 °F 30.02 in SE 8.0 mph 18.0 mph 59 % 0.00 in
19:46 73.9 °F 59.7 °F 30.01 in SE 7.0 mph 18.0 mph 61 % 0.00 in
19:51 73.8 °F 59.9 °F 30.01 in ESE 15.0 mph 17.0 mph 62 % 0.00 in
20:01 73.4 °F 60.1 °F 30.01 in East 5.0 mph 16.0 mph 63 % 0.00 in
20:06 73.2 °F 60.8 °F 30.01 in ESE 12.0 mph 16.0 mph 65 % 0.00 in
20:11 73.0 °F 61.0 °F 30.01 in SE 8.0 mph 16.0 mph 66 % 0.00 in
20:16 73.0 °F 61.5 °F 30.02 in SSE 7.0 mph 16.0 mph 67 % 0.00 in
20:21 72.9 °F 61.7 °F 30.01 in ESE 3.0 mph 15.0 mph 68 % 0.00 in
20:26 72.7 °F 61.5 °F 30.01 in ESE 9.0 mph 17.0 mph 68 % 0.00 in
20:31 72.5 °F 61.3 °F 30.02 in SE 7.0 mph 17.0 mph 68 % 0.00 in
20:36 72.3 °F 61.5 °F 30.02 in ESE 9.0 mph 19.0 mph 69 % 0.00 in
20:41 72.3 °F 62.1 °F 30.02 in SSE 12.0 mph 19.0 mph 70 % 0.00 in
20:46 72.1 °F 61.9 °F 30.03 in ESE 7.0 mph 19.0 mph 70 % 0.00 in
20:51 72.1 °F 61.9 °F 30.02 in SE 10.0 mph 18.0 mph 70 % 0.00 in
20:56 72.0 °F 62.1 °F 30.02 in SE 5.0 mph 15.0 mph 71 % 0.00 in
21:01 72.0 °F 62.1 °F 30.02 in SSE 7.0 mph 15.0 mph 71 % 0.00 in
21:06 71.8 °F 62.2 °F 30.03 in ESE 5.0 mph 15.0 mph 72 % 0.00 in
21:11 71.8 °F 62.2 °F 30.03 in ESE 8.0 mph 15.0 mph 72 % 0.00 in
21:16 71.8 °F 62.6 °F 30.03 in SE 8.0 mph 13.0 mph 73 % 0.00 in
21:21 71.6 °F 62.4 °F 30.03 in SSE 11.0 mph 13.0 mph 73 % 0.00 in
21:26 71.4 °F 62.8 °F 30.03 in ESE 9.0 mph 15.0 mph 74 % 0.00 in
21:31 71.4 °F 62.8 °F 30.03 in SE 3.0 mph 15.0 mph 74 % 0.00 in
21:36 71.4 °F 62.8 °F 30.03 in ESE 6.0 mph 15.0 mph 74 % 0.00 in
21:41 71.4 °F 63.1 °F 30.03 in SE 6.0 mph 14.0 mph 75 % 0.00 in
21:46 71.4 °F 63.5 °F 30.03 in ESE 8.0 mph 14.0 mph 76 % 0.00 in
21:51 71.2 °F 63.7 °F 30.03 in SSE 3.0 mph 14.0 mph 77 % 0.00 in
21:56 71.1 °F 63.9 °F 30.03 in ESE 6.0 mph 14.0 mph 78 % 0.00 in
22:01 71.1 °F 64.2 °F 30.03 in SSE 3.0 mph 14.0 mph 79 % 0.00 in
22:06 70.9 °F 64.0 °F 30.04 in SE 4.0 mph 14.0 mph 79 % 0.00 in
22:11 70.9 °F 64.4 °F 30.04 in SE 7.0 mph 14.0 mph 80 % 0.00 in
22:16 70.9 °F 64.4 °F 30.04 in SSE 11.0 mph 14.0 mph 80 % 0.00 in
22:21 70.9 °F 64.4 °F 30.04 in SE 7.0 mph 14.0 mph 80 % 0.00 in
22:26 70.9 °F 64.8 °F 30.03 in SE 10.0 mph 14.0 mph 81 % 0.00 in
22:31 70.9 °F 64.8 °F 30.04 in SSE 5.0 mph 14.0 mph 81 % 0.00 in
22:36 70.9 °F 65.1 °F 30.03 in ESE 4.0 mph 17.0 mph 82 % 0.00 in
22:41 70.9 °F 65.1 °F 30.03 in ESE 13.0 mph 17.0 mph 82 % 0.00 in
22:45 70.9 °F 65.1 °F 30.03 in WSW 7.0 mph 17.0 mph 82 % 0.00 in
22:50 70.9 °F 65.1 °F 30.03 in SE 7.0 mph 17.0 mph 82 % 0.00 in
22:55 70.7 °F 65.3 °F 30.03 in ESE 9.0 mph 17.0 mph 83 % 0.00 in
23:00 70.7 °F 65.3 °F 30.03 in ESE 12.0 mph 16.0 mph 83 % 0.00 in
23:05 70.5 °F 65.1 °F 30.03 in SSW 2.0 mph 16.0 mph 83 % 0.00 in
23:10 70.5 °F 65.5 °F 30.03 in ESE 8.0 mph 16.0 mph 84 % 0.00 in
23:15 70.5 °F 65.5 °F 30.03 in SSE 5.0 mph 14.0 mph 84 % 0.00 in
23:20 70.3 °F 65.3 °F 30.03 in SE 5.0 mph 14.0 mph 84 % 0.00 in
23:25 70.3 °F 65.3 °F 30.03 in SSE 9.0 mph 13.0 mph 84 % 0.00 in
23:30 70.3 °F 65.3 °F 30.02 in SE 9.0 mph 13.0 mph 84 % 0.00 in
23:35 70.2 °F 65.1 °F 30.02 in SE 6.0 mph 13.0 mph 84 % 0.00 in
23:40 70.2 °F 65.1 °F 30.02 in ESE 7.0 mph 16.0 mph 84 % 0.00 in
23:45 70.2 °F 65.1 °F 30.01 in SE 8.0 mph 16.0 mph 84 % 0.00 in
23:50 70.0 °F 65.3 °F 30.01 in SSE 7.0 mph 16.0 mph 85 % 0.00 in
23:55 70.0 °F 65.3 °F 30.01 in ESE 11.0 mph 16.0 mph 85 % 0.00 in
Spring, Texas: Villages of Bridgestone
Compliments of Weather Underground - 2.75 mb

Script developed by  Jim McMurry - jmcmurry@mwt.net Adapted for the template by  Wim van der Kuil - Leuven-Template.eu

You find our weather info also at:

UK Metoffice

WeatherCloud

Weather Underground

Mid-South Weather Network

AWEKAS

Citizen Weather Observer Program (CWOP)

HAMweather, WeatherForYou, PWS Weather

Equipment we use:

Weather-station
Davis Vantage Vue

Weather-program
Meteohub

Weather-server
Debian 7.9 x86 (Guest)

Provider
DreamHost

Davis Vantage Vue

Meteohub

Debian 7.9 x86 (Guest)

DreamHost